sensor_id;sensor_type;location;lat;lon;timestamp;P1;durP1;ratioP1;P2;durP2;ratioP2
80565;SDS011;69915;54.862;10.730;2023-11-19T00:00:34;8.90;;;5.03;;
80565;SDS011;69915;54.862;10.730;2023-11-19T00:03:00;10.20;;;4.90;;
80565;SDS011;69915;54.862;10.730;2023-11-19T00:05:26;9.25;;;5.35;;
80565;SDS011;69915;54.862;10.730;2023-11-19T00:07:52;7.70;;;3.53;;
80565;SDS011;69915;54.862;10.730;2023-11-19T00:10:18;9.27;;;5.97;;
80565;SDS011;69915;54.862;10.730;2023-11-19T00:12:45;6.90;;;4.53;;
80565;SDS011;69915;54.862;10.730;2023-11-19T00:15:13;5.93;;;3.83;;
80565;SDS011;69915;54.862;10.730;2023-11-19T00:17:42;6.82;;;4.78;;
80565;SDS011;69915;54.862;10.730;2023-11-19T00:20:10;7.93;;;3.80;;
80565;SDS011;69915;54.862;10.730;2023-11-19T00:22:39;8.80;;;4.65;;
80565;SDS011;69915;54.862;10.730;2023-11-19T00:25:07;4.10;;;3.13;;
80565;SDS011;69915;54.862;10.730;2023-11-19T00:27:33;4.57;;;3.42;;
80565;SDS011;69915;54.862;10.730;2023-11-19T00:29:59;14.13;;;3.75;;
80565;SDS011;69915;54.862;10.730;2023-11-19T00:32:24;6.63;;;3.58;;
80565;SDS011;69915;54.862;10.730;2023-11-19T00:34:50;8.65;;;4.47;;
80565;SDS011;69915;54.862;10.730;2023-11-19T00:37:16;7.43;;;4.47;;
80565;SDS011;69915;54.862;10.730;2023-11-19T00:39:42;6.22;;;4.43;;
80565;SDS011;69915;54.862;10.730;2023-11-19T00:42:08;5.07;;;4.53;;
80565;SDS011;69915;54.862;10.730;2023-11-19T00:44:35;7.07;;;4.35;;
80565;SDS011;69915;54.862;10.730;2023-11-19T00:47:01;12.77;;;5.55;;
80565;SDS011;69915;54.862;10.730;2023-11-19T00:49:26;6.10;;;3.70;;
80565;SDS011;69915;54.862;10.730;2023-11-19T00:51:52;3.22;;;1.92;;
80565;SDS011;69915;54.862;10.730;2023-11-19T00:54:17;6.32;;;3.33;;
80565;SDS011;69915;54.862;10.730;2023-11-19T00:56:43;6.30;;;3.28;;
80565;SDS011;69915;54.862;10.730;2023-11-19T00:59:09;5.53;;;3.83;;
80565;SDS011;69915;54.862;10.730;2023-11-19T01:01:35;4.10;;;2.65;;
80565;SDS011;69915;54.862;10.730;2023-11-19T01:04:01;6.57;;;3.03;;
80565;SDS011;69915;54.862;10.730;2023-11-19T01:06:29;6.75;;;3.08;;
80565;SDS011;69915;54.862;10.730;2023-11-19T01:08:56;6.43;;;1.98;;
80565;SDS011;69915;54.862;10.730;2023-11-19T01:11:25;4.07;;;2.65;;
80565;SDS011;69915;54.862;10.730;2023-11-19T01:13:50;8.13;;;3.53;;
80565;SDS011;69915;54.862;10.730;2023-11-19T01:16:17;5.85;;;2.78;;
80565;SDS011;69915;54.862;10.730;2023-11-19T01:18:44;5.70;;;3.88;;
80565;SDS011;69915;54.862;10.730;2023-11-19T01:21:10;6.03;;;2.83;;
80565;SDS011;69915;54.862;10.730;2023-11-19T01:23:35;5.80;;;3.30;;
80565;SDS011;69915;54.862;10.730;2023-11-19T01:26:02;3.90;;;2.60;;
80565;SDS011;69915;54.862;10.730;2023-11-19T01:28:27;6.95;;;3.33;;
80565;SDS011;69915;54.862;10.730;2023-11-19T01:30:53;5.28;;;2.67;;
80565;SDS011;69915;54.862;10.730;2023-11-19T01:33:19;6.10;;;2.72;;
80565;SDS011;69915;54.862;10.730;2023-11-19T01:35:44;4.38;;;2.95;;
80565;SDS011;69915;54.862;10.730;2023-11-19T01:38:10;3.50;;;2.42;;
80565;SDS011;69915;54.862;10.730;2023-11-19T01:40:36;3.28;;;2.50;;
80565;SDS011;69915;54.862;10.730;2023-11-19T01:43:02;3.90;;;2.90;;
80565;SDS011;69915;54.862;10.730;2023-11-19T01:45:29;6.72;;;3.28;;
80565;SDS011;69915;54.862;10.730;2023-11-19T01:47:57;4.53;;;2.78;;
80565;SDS011;69915;54.862;10.730;2023-11-19T01:50:23;3.88;;;2.88;;
80565;SDS011;69915;54.862;10.730;2023-11-19T01:52:53;6.28;;;3.88;;
80565;SDS011;69915;54.862;10.730;2023-11-19T01:55:19;3.42;;;2.60;;
80565;SDS011;69915;54.862;10.730;2023-11-19T01:57:46;4.88;;;3.13;;
80565;SDS011;69915;54.862;10.730;2023-11-19T02:00:14;4.65;;;3.20;;
80565;SDS011;69915;54.862;10.730;2023-11-19T02:02:41;4.38;;;2.58;;
80565;SDS011;69915;54.862;10.730;2023-11-19T02:05:08;5.07;;;3.47;;
80565;SDS011;69915;54.862;10.730;2023-11-19T02:07:35;6.85;;;4.97;;
80565;SDS011;69915;54.862;10.730;2023-11-19T02:10:01;5.35;;;2.55;;
80565;SDS011;69915;54.862;10.730;2023-11-19T02:12:31;7.10;;;3.65;;
80565;SDS011;69915;54.862;10.730;2023-11-19T02:14:59;6.80;;;4.38;;
80565;SDS011;69915;54.862;10.730;2023-11-19T02:17:33;5.63;;;4.38;;
80565;SDS011;69915;54.862;10.730;2023-11-19T02:20:05;6.82;;;4.50;;
80565;SDS011;69915;54.862;10.730;2023-11-19T02:22:34;3.65;;;2.58;;
80565;SDS011;69915;54.862;10.730;2023-11-19T02:25:02;6.68;;;4.55;;
80565;SDS011;69915;54.862;10.730;2023-11-19T02:30:10;4.07;;;2.63;;
80565;SDS011;69915;54.862;10.730;2023-11-19T02:32:36;3.95;;;2.40;;
80565;SDS011;69915;54.862;10.730;2023-11-19T02:35:06;5.10;;;2.85;;
80565;SDS011;69915;54.862;10.730;2023-11-19T02:37:33;3.47;;;2.78;;
80565;SDS011;69915;54.862;10.730;2023-11-19T02:39:59;3.92;;;2.80;;
80565;SDS011;69915;54.862;10.730;2023-11-19T02:42:35;5.05;;;3.80;;
80565;SDS011;69915;54.862;10.730;2023-11-19T02:45:00;7.07;;;2.85;;
80565;SDS011;69915;54.862;10.730;2023-11-19T02:47:27;5.32;;;2.70;;
80565;SDS011;69915;54.862;10.730;2023-11-19T02:49:55;3.40;;;2.30;;
80565;SDS011;69915;54.862;10.730;2023-11-19T02:52:21;4.00;;;2.80;;
80565;SDS011;69915;54.862;10.730;2023-11-19T02:54:46;4.22;;;2.47;;
80565;SDS011;69915;54.862;10.730;2023-11-19T02:57:12;2.72;;;2.20;;
80565;SDS011;69915;54.862;10.730;2023-11-19T02:59:38;4.22;;;2.22;;
80565;SDS011;69915;54.862;10.730;2023-11-19T03:02:08;7.05;;;3.42;;
80565;SDS011;69915;54.862;10.730;2023-11-19T03:04:37;3.78;;;2.55;;
80565;SDS011;69915;54.862;10.730;2023-11-19T03:07:07;4.72;;;2.90;;
80565;SDS011;69915;54.862;10.730;2023-11-19T03:09:33;6.10;;;3.22;;
80565;SDS011;69915;54.862;10.730;2023-11-19T03:12:00;3.83;;;2.38;;
80565;SDS011;69915;54.862;10.730;2023-11-19T03:14:26;3.88;;;2.80;;
80565;SDS011;69915;54.862;10.730;2023-11-19T03:16:51;6.22;;;4.18;;
80565;SDS011;69915;54.862;10.730;2023-11-19T03:19:16;4.40;;;2.92;;
80565;SDS011;69915;54.862;10.730;2023-11-19T03:21:42;4.00;;;2.63;;
80565;SDS011;69915;54.862;10.730;2023-11-19T03:24:07;3.78;;;3.47;;
80565;SDS011;69915;54.862;10.730;2023-11-19T03:26:33;5.40;;;2.63;;
80565;SDS011;69915;54.862;10.730;2023-11-19T03:28:59;3.15;;;2.60;;
80565;SDS011;69915;54.862;10.730;2023-11-19T03:31:24;4.97;;;3.08;;
80565;SDS011;69915;54.862;10.730;2023-11-19T03:33:50;9.38;;;3.15;;
80565;SDS011;69915;54.862;10.730;2023-11-19T03:36:16;5.78;;;3.42;;
80565;SDS011;69915;54.862;10.730;2023-11-19T03:38:42;4.78;;;2.50;;
80565;SDS011;69915;54.862;10.730;2023-11-19T03:41:14;4.93;;;2.95;;
80565;SDS011;69915;54.862;10.730;2023-11-19T03:43:40;20.58;;;4.25;;
80565;SDS011;69915;54.862;10.730;2023-11-19T03:46:18;4.10;;;2.38;;
80565;SDS011;69915;54.862;10.730;2023-11-19T03:48:48;3.33;;;2.60;;
80565;SDS011;69915;54.862;10.730;2023-11-19T03:51:14;3.17;;;2.30;;
80565;SDS011;69915;54.862;10.730;2023-11-19T03:56:48;2.42;;;1.95;;
80565;SDS011;69915;54.862;10.730;2023-11-19T03:59:14;2.90;;;2.28;;
80565;SDS011;69915;54.862;10.730;2023-11-19T04:01:40;5.35;;;2.13;;
80565;SDS011;69915;54.862;10.730;2023-11-19T04:04:06;3.63;;;2.63;;
80565;SDS011;69915;54.862;10.730;2023-11-19T04:06:32;3.80;;;2.03;;
80565;SDS011;69915;54.862;10.730;2023-11-19T04:08:57;3.08;;;2.50;;
80565;SDS011;69915;54.862;10.730;2023-11-19T04:11:23;4.03;;;2.30;;
80565;SDS011;69915;54.862;10.730;2023-11-19T04:13:48;3.25;;;2.50;;
80565;SDS011;69915;54.862;10.730;2023-11-19T04:16:14;5.18;;;2.63;;
80565;SDS011;69915;54.862;10.730;2023-11-19T04:18:40;2.88;;;2.40;;
80565;SDS011;69915;54.862;10.730;2023-11-19T04:21:08;6.07;;;3.13;;
80565;SDS011;69915;54.862;10.730;2023-11-19T04:23:33;4.22;;;2.60;;
80565;SDS011;69915;54.862;10.730;2023-11-19T04:26:01;3.75;;;2.53;;
80565;SDS011;69915;54.862;10.730;2023-11-19T04:28:27;5.80;;;2.88;;
80565;SDS011;69915;54.862;10.730;2023-11-19T04:30:53;2.50;;;2.30;;
80565;SDS011;69915;54.862;10.730;2023-11-19T04:33:18;3.85;;;2.70;;
80565;SDS011;69915;54.862;10.730;2023-11-19T04:35:44;2.90;;;1.95;;
80565;SDS011;69915;54.862;10.730;2023-11-19T04:38:09;4.32;;;2.22;;
80565;SDS011;69915;54.862;10.730;2023-11-19T04:40:35;3.83;;;2.45;;
80565;SDS011;69915;54.862;10.730;2023-11-19T04:43:01;9.95;;;2.53;;
80565;SDS011;69915;54.862;10.730;2023-11-19T04:45:26;3.63;;;2.85;;
80565;SDS011;69915;54.862;10.730;2023-11-19T04:47:51;3.70;;;2.92;;
80565;SDS011;69915;54.862;10.730;2023-11-19T04:50:17;4.78;;;1.83;;
80565;SDS011;69915;54.862;10.730;2023-11-19T04:52:42;3.80;;;2.83;;
80565;SDS011;69915;54.862;10.730;2023-11-19T04:55:10;4.07;;;2.80;;
80565;SDS011;69915;54.862;10.730;2023-11-19T04:57:37;3.22;;;2.55;;
80565;SDS011;69915;54.862;10.730;2023-11-19T05:00:03;4.90;;;2.58;;
80565;SDS011;69915;54.862;10.730;2023-11-19T05:02:30;5.95;;;2.70;;
80565;SDS011;69915;54.862;10.730;2023-11-19T05:04:55;2.83;;;2.30;;
80565;SDS011;69915;54.862;10.730;2023-11-19T05:07:21;2.90;;;2.45;;
80565;SDS011;69915;54.862;10.730;2023-11-19T05:09:47;5.57;;;2.10;;
80565;SDS011;69915;54.862;10.730;2023-11-19T05:12:12;2.92;;;2.33;;
80565;SDS011;69915;54.862;10.730;2023-11-19T05:14:38;5.15;;;3.25;;
80565;SDS011;69915;54.862;10.730;2023-11-19T05:17:03;3.80;;;2.25;;
80565;SDS011;69915;54.862;10.730;2023-11-19T05:19:29;4.10;;;2.53;;
80565;SDS011;69915;54.862;10.730;2023-11-19T05:21:55;4.85;;;2.03;;
80565;SDS011;69915;54.862;10.730;2023-11-19T05:24:20;3.65;;;2.45;;
80565;SDS011;69915;54.862;10.730;2023-11-19T05:26:45;6.55;;;2.42;;
80565;SDS011;69915;54.862;10.730;2023-11-19T05:29:12;3.50;;;2.25;;
80565;SDS011;69915;54.862;10.730;2023-11-19T05:31:37;4.75;;;1.80;;
80565;SDS011;69915;54.862;10.730;2023-11-19T05:34:03;8.35;;;2.00;;
80565;SDS011;69915;54.862;10.730;2023-11-19T05:36:29;8.68;;;2.90;;
80565;SDS011;69915;54.862;10.730;2023-11-19T05:38:55;4.75;;;2.38;;
80565;SDS011;69915;54.862;10.730;2023-11-19T05:41:20;2.88;;;2.10;;
80565;SDS011;69915;54.862;10.730;2023-11-19T05:43:46;2.85;;;1.90;;
80565;SDS011;69915;54.862;10.730;2023-11-19T05:46:11;8.10;;;2.08;;
80565;SDS011;69915;54.862;10.730;2023-11-19T05:48:38;4.68;;;2.55;;
80565;SDS011;69915;54.862;10.730;2023-11-19T05:51:04;2.47;;;1.85;;
80565;SDS011;69915;54.862;10.730;2023-11-19T05:53:30;2.28;;;2.08;;
80565;SDS011;69915;54.862;10.730;2023-11-19T05:55:56;2.75;;;1.85;;
80565;SDS011;69915;54.862;10.730;2023-11-19T05:58:23;3.38;;;2.33;;
80565;SDS011;69915;54.862;10.730;2023-11-19T06:00:54;5.53;;;1.90;;
80565;SDS011;69915;54.862;10.730;2023-11-19T06:03:22;3.47;;;2.03;;
80565;SDS011;69915;54.862;10.730;2023-11-19T06:05:48;2.65;;;1.70;;
80565;SDS011;69915;54.862;10.730;2023-11-19T06:08:14;2.92;;;2.63;;
80565;SDS011;69915;54.862;10.730;2023-11-19T06:10:40;2.35;;;2.05;;
80565;SDS011;69915;54.862;10.730;2023-11-19T06:13:06;3.25;;;2.28;;
80565;SDS011;69915;54.862;10.730;2023-11-19T06:15:35;2.47;;;1.90;;
80565;SDS011;69915;54.862;10.730;2023-11-19T06:18:01;2.58;;;2.15;;
80565;SDS011;69915;54.862;10.730;2023-11-19T06:20:28;3.85;;;2.47;;
80565;SDS011;69915;54.862;10.730;2023-11-19T06:22:55;5.22;;;2.20;;
80565;SDS011;69915;54.862;10.730;2023-11-19T06:26:19;3.60;;;2.50;;
80565;SDS011;69915;54.862;10.730;2023-11-19T06:29:44;3.65;;;2.25;;
80565;SDS011;69915;54.862;10.730;2023-11-19T06:33:08;2.55;;;2.35;;
80565;SDS011;69915;54.862;10.730;2023-11-19T06:36:32;7.13;;;2.72;;
80565;SDS011;69915;54.862;10.730;2023-11-19T06:39:56;5.15;;;2.55;;
80565;SDS011;69915;54.862;10.730;2023-11-19T06:43:20;9.50;;;3.95;;
80565;SDS011;69915;54.862;10.730;2023-11-19T06:46:44;2.92;;;2.72;;
80565;SDS011;69915;54.862;10.730;2023-11-19T06:50:08;3.88;;;2.33;;
80565;SDS011;69915;54.862;10.730;2023-11-19T06:53:32;4.75;;;2.83;;
80565;SDS011;69915;54.862;10.730;2023-11-19T06:56:56;3.97;;;2.72;;
80565;SDS011;69915;54.862;10.730;2023-11-19T07:00:20;6.90;;;2.33;;
80565;SDS011;69915;54.862;10.730;2023-11-19T07:03:45;11.15;;;3.35;;
80565;SDS011;69915;54.862;10.730;2023-11-19T07:07:09;4.15;;;2.72;;
80565;SDS011;69915;54.862;10.730;2023-11-19T07:10:33;4.60;;;2.88;;
80565;SDS011;69915;54.862;10.730;2023-11-19T07:13:56;4.35;;;2.45;;
80565;SDS011;69915;54.862;10.730;2023-11-19T07:17:21;5.25;;;2.78;;
80565;SDS011;69915;54.862;10.730;2023-11-19T07:20:47;5.05;;;2.30;;
80565;SDS011;69915;54.862;10.730;2023-11-19T07:24:11;4.13;;;2.35;;
80565;SDS011;69915;54.862;10.730;2023-11-19T07:27:35;3.60;;;1.98;;
80565;SDS011;69915;54.862;10.730;2023-11-19T07:30:59;4.57;;;2.83;;
80565;SDS011;69915;54.862;10.730;2023-11-19T07:34:24;2.67;;;2.47;;
80565;SDS011;69915;54.862;10.730;2023-11-19T07:37:48;4.78;;;2.38;;
80565;SDS011;69915;54.862;10.730;2023-11-19T07:41:12;3.25;;;2.38;;
80565;SDS011;69915;54.862;10.730;2023-11-19T07:44:36;5.28;;;2.30;;
80565;SDS011;69915;54.862;10.730;2023-11-19T07:48:01;4.68;;;2.97;;
80565;SDS011;69915;54.862;10.730;2023-11-19T07:51:27;3.35;;;2.28;;
80565;SDS011;69915;54.862;10.730;2023-11-19T07:54:51;4.00;;;2.20;;
80565;SDS011;69915;54.862;10.730;2023-11-19T07:58:15;2.47;;;2.28;;
80565;SDS011;69915;54.862;10.730;2023-11-19T08:01:39;3.90;;;2.42;;
80565;SDS011;69915;54.862;10.730;2023-11-19T08:05:04;5.50;;;2.88;;
80565;SDS011;69915;54.862;10.730;2023-11-19T08:08:29;4.47;;;2.97;;
80565;SDS011;69915;54.862;10.730;2023-11-19T08:11:53;3.78;;;2.90;;
80565;SDS011;69915;54.862;10.730;2023-11-19T08:15:16;3.25;;;2.72;;
80565;SDS011;69915;54.862;10.730;2023-11-19T08:18:41;7.20;;;3.15;;
80565;SDS011;69915;54.862;10.730;2023-11-19T08:22:05;3.70;;;2.88;;
80565;SDS011;69915;54.862;10.730;2023-11-19T08:25:30;3.28;;;2.70;;
80565;SDS011;69915;54.862;10.730;2023-11-19T08:28:54;3.08;;;2.55;;
80565;SDS011;69915;54.862;10.730;2023-11-19T08:32:05;5.20;;;2.83;;
80565;SDS011;69915;54.862;10.730;2023-11-19T08:35:31;4.90;;;3.05;;
80565;SDS011;69915;54.862;10.730;2023-11-19T08:38:56;4.07;;;3.13;;
80565;SDS011;69915;54.862;10.730;2023-11-19T08:42:21;3.90;;;3.28;;
80565;SDS011;69915;54.862;10.730;2023-11-19T08:45:45;4.85;;;3.70;;
80565;SDS011;69915;54.862;10.730;2023-11-19T08:49:15;3.90;;;3.50;;
80565;SDS011;69915;54.862;10.730;2023-11-19T08:52:38;4.13;;;3.30;;
80565;SDS011;69915;54.862;10.730;2023-11-19T08:56:02;4.25;;;3.85;;
80565;SDS011;69915;54.862;10.730;2023-11-19T08:59:28;9.18;;;3.80;;
80565;SDS011;69915;54.862;10.730;2023-11-19T09:02:52;6.30;;;4.05;;
80565;SDS011;69915;54.862;10.730;2023-11-19T09:06:16;4.63;;;3.72;;
80565;SDS011;69915;54.862;10.730;2023-11-19T09:09:40;5.15;;;3.70;;
80565;SDS011;69915;54.862;10.730;2023-11-19T09:13:03;6.43;;;3.47;;
80565;SDS011;69915;54.862;10.730;2023-11-19T09:16:27;3.40;;;3.10;;
80565;SDS011;69915;54.862;10.730;2023-11-19T09:19:51;3.05;;;2.55;;
80565;SDS011;69915;54.862;10.730;2023-11-19T09:23:16;3.58;;;3.28;;
80565;SDS011;69915;54.862;10.730;2023-11-19T09:26:40;4.30;;;3.33;;
80565;SDS011;69915;54.862;10.730;2023-11-19T09:30:04;5.75;;;3.95;;
80565;SDS011;69915;54.862;10.730;2023-11-19T09:33:37;2.55;;;2.25;;
80565;SDS011;69915;54.862;10.730;2023-11-19T09:37:01;3.65;;;3.33;;
80565;SDS011;69915;54.862;10.730;2023-11-19T09:40:25;4.05;;;3.42;;
80565;SDS011;69915;54.862;10.730;2023-11-19T09:43:50;3.35;;;2.60;;
80565;SDS011;69915;54.862;10.730;2023-11-19T09:47:14;3.85;;;2.30;;
80565;SDS011;69915;54.862;10.730;2023-11-19T09:54:07;3.60;;;2.65;;
80565;SDS011;69915;54.862;10.730;2023-11-19T09:57:32;3.28;;;2.95;;
80565;SDS011;69915;54.862;10.730;2023-11-19T10:00:58;6.40;;;3.80;;
80565;SDS011;69915;54.862;10.730;2023-11-19T10:04:23;5.15;;;4.32;;
80565;SDS011;69915;54.862;10.730;2023-11-19T10:07:49;12.73;;;5.70;;
80565;SDS011;69915;54.862;10.730;2023-11-19T10:11:13;12.43;;;4.68;;
80565;SDS011;69915;54.862;10.730;2023-11-19T10:14:37;23.77;;;4.93;;
80565;SDS011;69915;54.862;10.730;2023-11-19T10:18:02;11.93;;;4.25;;
80565;SDS011;69915;54.862;10.730;2023-11-19T10:21:26;20.20;;;5.22;;
80565;SDS011;69915;54.862;10.730;2023-11-19T10:24:51;12.57;;;4.78;;
80565;SDS011;69915;54.862;10.730;2023-11-19T10:28:18;5.35;;;3.08;;
80565;SDS011;69915;54.862;10.730;2023-11-19T10:31:43;4.30;;;3.08;;
80565;SDS011;69915;54.862;10.730;2023-11-19T10:35:37;12.00;;;4.20;;
80565;SDS011;69915;54.862;10.730;2023-11-19T10:39:14;5.28;;;3.03;;
80565;SDS011;69915;54.862;10.730;2023-11-19T10:42:38;11.93;;;3.97;;
80565;SDS011;69915;54.862;10.730;2023-11-19T10:46:12;21.05;;;4.10;;
80565;SDS011;69915;54.862;10.730;2023-11-19T10:49:38;23.20;;;5.03;;
80565;SDS011;69915;54.862;10.730;2023-11-19T10:53:03;11.45;;;2.83;;
80565;SDS011;69915;54.862;10.730;2023-11-19T10:56:32;13.45;;;4.75;;
80565;SDS011;69915;54.862;10.730;2023-11-19T11:00:00;18.20;;;4.40;;
80565;SDS011;69915;54.862;10.730;2023-11-19T11:03:29;22.67;;;4.88;;
80565;SDS011;69915;54.862;10.730;2023-11-19T11:06:56;21.63;;;5.38;;
80565;SDS011;69915;54.862;10.730;2023-11-19T11:10:25;10.38;;;4.93;;
80565;SDS011;69915;54.862;10.730;2023-11-19T11:13:49;16.40;;;5.25;;
80565;SDS011;69915;54.862;10.730;2023-11-19T11:17:14;20.90;;;6.10;;
80565;SDS011;69915;54.862;10.730;2023-11-19T11:20:45;8.80;;;4.82;;
80565;SDS011;69915;54.862;10.730;2023-11-19T11:28:02;20.15;;;5.47;;
80565;SDS011;69915;54.862;10.730;2023-11-19T11:31:44;29.15;;;6.68;;
80565;SDS011;69915;54.862;10.730;2023-11-19T11:35:34;17.52;;;6.38;;
80565;SDS011;69915;54.862;10.730;2023-11-19T11:39:28;16.70;;;7.35;;
80565;SDS011;69915;54.862;10.730;2023-11-19T11:42:53;22.02;;;5.90;;
80565;SDS011;69915;54.862;10.730;2023-11-19T11:50:07;22.92;;;5.78;;
80565;SDS011;69915;54.862;10.730;2023-11-19T11:53:32;32.42;;;8.40;;
80565;SDS011;69915;54.862;10.730;2023-11-19T11:57:03;29.63;;;6.63;;
80565;SDS011;69915;54.862;10.730;2023-11-19T12:03:57;21.85;;;6.18;;
80565;SDS011;69915;54.862;10.730;2023-11-19T12:07:22;25.73;;;7.82;;
80565;SDS011;69915;54.862;10.730;2023-11-19T12:10:50;9.82;;;6.07;;
80565;SDS011;69915;54.862;10.730;2023-11-19T12:14:14;21.40;;;6.78;;
80565;SDS011;69915;54.862;10.730;2023-11-19T12:17:43;15.55;;;5.60;;
80565;SDS011;69915;54.862;10.730;2023-11-19T12:21:08;22.90;;;5.88;;
80565;SDS011;69915;54.862;10.730;2023-11-19T12:24:36;24.10;;;5.82;;
80565;SDS011;69915;54.862;10.730;2023-11-19T12:28:00;16.00;;;5.18;;
80565;SDS011;69915;54.862;10.730;2023-11-19T12:31:25;17.52;;;4.78;;
80565;SDS011;69915;54.862;10.730;2023-11-19T12:34:49;21.50;;;5.05;;
80565;SDS011;69915;54.862;10.730;2023-11-19T12:38:24;21.45;;;5.30;;
80565;SDS011;69915;54.862;10.730;2023-11-19T12:41:48;16.17;;;5.38;;
80565;SDS011;69915;54.862;10.730;2023-11-19T12:45:22;15.75;;;5.05;;
80565;SDS011;69915;54.862;10.730;2023-11-19T12:48:48;78.90;;;22.08;;
80565;SDS011;69915;54.862;10.730;2023-11-19T12:52:21;20.88;;;6.38;;
80565;SDS011;69915;54.862;10.730;2023-11-19T12:55:46;19.25;;;6.72;;
80565;SDS011;69915;54.862;10.730;2023-11-19T12:59:19;22.85;;;7.60;;
80565;SDS011;69915;54.862;10.730;2023-11-19T13:02:47;18.45;;;5.78;;
80565;SDS011;69915;54.862;10.730;2023-11-19T13:06:13;22.08;;;5.93;;
80565;SDS011;69915;54.862;10.730;2023-11-19T13:09:38;17.02;;;6.80;;
80565;SDS011;69915;54.862;10.730;2023-11-19T13:13:13;19.88;;;5.53;;
80565;SDS011;69915;54.862;10.730;2023-11-19T13:16:38;23.20;;;6.30;;
80565;SDS011;69915;54.862;10.730;2023-11-19T13:20:02;16.00;;;5.50;;
80565;SDS011;69915;54.862;10.730;2023-11-19T13:23:26;22.13;;;5.10;;
80565;SDS011;69915;54.862;10.730;2023-11-19T13:26:11;17.92;;;5.78;;
80565;SDS011;69915;54.862;10.730;2023-11-19T13:28:38;18.00;;;4.30;;
80565;SDS011;69915;54.862;10.730;2023-11-19T13:31:03;15.55;;;4.47;;
80565;SDS011;69915;54.862;10.730;2023-11-19T13:33:29;14.25;;;5.05;;
80565;SDS011;69915;54.862;10.730;2023-11-19T13:35:55;22.13;;;5.78;;
80565;SDS011;69915;54.862;10.730;2023-11-19T13:38:22;18.77;;;5.90;;
80565;SDS011;69915;54.862;10.730;2023-11-19T13:40:49;18.30;;;5.90;;
80565;SDS011;69915;54.862;10.730;2023-11-19T13:43:14;23.25;;;7.15;;
80565;SDS011;69915;54.862;10.730;2023-11-19T13:45:40;20.70;;;5.82;;
80565;SDS011;69915;54.862;10.730;2023-11-19T13:48:05;22.63;;;5.57;;
80565;SDS011;69915;54.862;10.730;2023-11-19T13:50:31;14.40;;;3.33;;
80565;SDS011;69915;54.862;10.730;2023-11-19T13:52:57;18.20;;;5.38;;
80565;SDS011;69915;54.862;10.730;2023-11-19T13:55:22;14.65;;;4.47;;
80565;SDS011;69915;54.862;10.730;2023-11-19T13:57:48;22.45;;;4.00;;
80565;SDS011;69915;54.862;10.730;2023-11-19T14:00:14;15.55;;;5.07;;
80565;SDS011;69915;54.862;10.730;2023-11-19T14:05:10;23.20;;;6.13;;
80565;SDS011;69915;54.862;10.730;2023-11-19T14:07:38;21.35;;;4.68;;
80565;SDS011;69915;54.862;10.730;2023-11-19T14:10:05;16.10;;;4.32;;
80565;SDS011;69915;54.862;10.730;2023-11-19T14:12:31;15.27;;;3.78;;
80565;SDS011;69915;54.862;10.730;2023-11-19T14:14:58;14.57;;;3.80;;
80565;SDS011;69915;54.862;10.730;2023-11-19T14:17:25;20.50;;;3.78;;
80565;SDS011;69915;54.862;10.730;2023-11-19T14:19:50;15.52;;;3.42;;
80565;SDS011;69915;54.862;10.730;2023-11-19T14:22:16;19.67;;;4.80;;
80565;SDS011;69915;54.862;10.730;2023-11-19T14:24:41;16.48;;;3.83;;
80565;SDS011;69915;54.862;10.730;2023-11-19T14:27:08;22.77;;;4.03;;
80565;SDS011;69915;54.862;10.730;2023-11-19T14:29:36;17.05;;;4.15;;
80565;SDS011;69915;54.862;10.730;2023-11-19T14:32:02;23.52;;;5.15;;
80565;SDS011;69915;54.862;10.730;2023-11-19T14:34:29;24.70;;;7.35;;
80565;SDS011;69915;54.862;10.730;2023-11-19T14:36:55;45.00;;;14.60;;
80565;SDS011;69915;54.862;10.730;2023-11-19T14:39:21;107.55;;;29.60;;
80565;SDS011;69915;54.862;10.730;2023-11-19T14:41:47;25.60;;;13.65;;
80565;SDS011;69915;54.862;10.730;2023-11-19T14:44:12;27.55;;;9.93;;
80565;SDS011;69915;54.862;10.730;2023-11-19T14:46:38;26.48;;;8.23;;
80565;SDS011;69915;54.862;10.730;2023-11-19T14:49:03;18.95;;;4.68;;
80565;SDS011;69915;54.862;10.730;2023-11-19T14:51:29;15.52;;;5.15;;
80565;SDS011;69915;54.862;10.730;2023-11-19T14:53:55;10.30;;;4.22;;
80565;SDS011;69915;54.862;10.730;2023-11-19T14:56:20;26.30;;;4.72;;
80565;SDS011;69915;54.862;10.730;2023-11-19T14:58:46;19.83;;;4.50;;
80565;SDS011;69915;54.862;10.730;2023-11-19T15:01:12;19.60;;;5.00;;
80565;SDS011;69915;54.862;10.730;2023-11-19T15:03:38;16.48;;;5.20;;
80565;SDS011;69915;54.862;10.730;2023-11-19T15:06:03;18.05;;;4.65;;
80565;SDS011;69915;54.862;10.730;2023-11-19T15:08:29;16.48;;;4.75;;
80565;SDS011;69915;54.862;10.730;2023-11-19T15:10:55;28.30;;;6.13;;
80565;SDS011;69915;54.862;10.730;2023-11-19T15:13:22;14.90;;;4.70;;
80565;SDS011;69915;54.862;10.730;2023-11-19T15:15:48;45.08;;;16.48;;
80565;SDS011;69915;54.862;10.730;2023-11-19T15:18:13;51.08;;;18.05;;
80565;SDS011;69915;54.862;10.730;2023-11-19T15:20:38;27.77;;;9.13;;
80565;SDS011;69915;54.862;10.730;2023-11-19T15:23:04;15.73;;;4.57;;
80565;SDS011;69915;54.862;10.730;2023-11-19T15:25:29;20.45;;;5.18;;
80565;SDS011;69915;54.862;10.730;2023-11-19T15:27:55;20.48;;;5.15;;
80565;SDS011;69915;54.862;10.730;2023-11-19T15:30:20;18.55;;;3.95;;
80565;SDS011;69915;54.862;10.730;2023-11-19T15:32:46;17.45;;;3.33;;
80565;SDS011;69915;54.862;10.730;2023-11-19T15:35:12;14.55;;;4.60;;
80565;SDS011;69915;54.862;10.730;2023-11-19T15:37:38;29.17;;;5.22;;
80565;SDS011;69915;54.862;10.730;2023-11-19T15:40:08;18.60;;;4.47;;
80565;SDS011;69915;54.862;10.730;2023-11-19T15:42:35;17.23;;;5.70;;
80565;SDS011;69915;54.862;10.730;2023-11-19T15:45:01;16.77;;;4.97;;
80565;SDS011;69915;54.862;10.730;2023-11-19T15:47:29;19.77;;;5.47;;
80565;SDS011;69915;54.862;10.730;2023-11-19T15:49:55;25.55;;;6.07;;
80565;SDS011;69915;54.862;10.730;2023-11-19T15:52:21;18.65;;;5.68;;
80565;SDS011;69915;54.862;10.730;2023-11-19T15:54:46;24.83;;;6.90;;
80565;SDS011;69915;54.862;10.730;2023-11-19T15:57:12;15.90;;;4.60;;
80565;SDS011;69915;54.862;10.730;2023-11-19T15:59:38;24.17;;;6.05;;
80565;SDS011;69915;54.862;10.730;2023-11-19T16:02:06;16.02;;;5.72;;
80565;SDS011;69915;54.862;10.730;2023-11-19T16:04:32;16.80;;;5.35;;
80565;SDS011;69915;54.862;10.730;2023-11-19T16:06:57;15.43;;;4.85;;
80565;SDS011;69915;54.862;10.730;2023-11-19T16:09:23;16.42;;;4.35;;
80565;SDS011;69915;54.862;10.730;2023-11-19T16:11:48;23.83;;;5.95;;
80565;SDS011;69915;54.862;10.730;2023-11-19T16:14:14;20.33;;;5.47;;
80565;SDS011;69915;54.862;10.730;2023-11-19T16:16:40;21.60;;;5.32;;
80565;SDS011;69915;54.862;10.730;2023-11-19T16:19:06;15.05;;;4.97;;
80565;SDS011;69915;54.862;10.730;2023-11-19T16:21:32;14.75;;;4.38;;
80565;SDS011;69915;54.862;10.730;2023-11-19T16:24:00;65.40;;;23.10;;
80565;SDS011;69915;54.862;10.730;2023-11-19T16:26:29;52.08;;;15.85;;
80565;SDS011;69915;54.862;10.730;2023-11-19T16:28:57;28.55;;;10.95;;
80565;SDS011;69915;54.862;10.730;2023-11-19T16:31:24;18.70;;;7.53;;
80565;SDS011;69915;54.862;10.730;2023-11-19T16:33:49;17.10;;;5.55;;
80565;SDS011;69915;54.862;10.730;2023-11-19T16:36:14;18.13;;;5.82;;
80565;SDS011;69915;54.862;10.730;2023-11-19T16:38:40;28.27;;;6.15;;
80565;SDS011;69915;54.862;10.730;2023-11-19T16:41:06;15.75;;;5.78;;
80565;SDS011;69915;54.862;10.730;2023-11-19T16:43:32;20.90;;;5.10;;